Etusivu
METAR-TAF:

METAR-TAF

Lentoasemat :

Áraxoksen lentoasema

Araxos, Kreikka

Leveyspiiri: 38-09N, Pituuspiiri: 021-25E, korkeus merenpinnasta: 11 m

Tämänhetkinen sää

Tämä raportti tehtiin 33 minuuttia sitten, kello 15.20 UTC
Tuuli 4 kn lännestä
Lämpötila 25°C
Kosteus 44%
Ilmanpaine 1015 hPa
Näkyvyys 10 km tai enemmän
ei pilviä alle 1500 m:ssä eikä cumulonimbus-pilviä

METAR: LGRX 241520Z 26004KT CAVOK 25/12 Q1015

Aika: 18:53 (15:53 UTC)

Sääennuste

Tämä raportti tehtiin 1 tunti ja 53 minuuttia sitten, kello 14.00 UTC
Ennuste voimassa 24. päivästä klo 15 UTC - 24. päivään klo 24 UTC
Tuuli 12 kn lännestä/luoteesta
Näkyvyys 10 km tai enemmän
Muutamia pilviä 2500 ft:n korkeudessa
Tulossa
24. päivästä klo 19 UTC - 24. päivään klo 21 UTC
Tuuli 3 kn eri suunnista

TAF: LGRX 241400Z 2415/2424 29012KT 9999 FEW025 BECMG 2419/2421 VRB03KT

Säähavainnot ja -ennusteet yli 4000 lentoasemalta (METAR- ja TAF-raportit).

Käytössä olevat sääasemat on merkitty karttaan keltaisilla ja punaisilla pisteillä.

Aseta hiiri pisteen päälle nähdäksesi sääaseman nimen.

Klikkaa sitten nähdäksesi säähavainnot ja -ennusteet.

Kartan vaihtaminen: klikkaa mustalla rastilla varustettuja vihreitä pisteitä, niin voit zoomata sisään; viivalla varustettua vihreää pistettä, niin voit zoomata ulos tai vihreitä nuolia, niin pääset viereisille kartoille.


METAR-TAF: